createdAt,value
2018-11-23T00:00:17.564Z,72.28
2018-11-23T00:02:47.030Z,72.04
2018-11-23T00:05:15.749Z,71.91
2018-11-23T00:07:44.777Z,72.12
2018-11-23T00:10:14.990Z,72.02
2018-11-23T00:12:43.937Z,72.16
2018-11-23T00:15:20.260Z,71.77
2018-11-23T00:17:49.253Z,71.89
2018-11-23T00:20:20.164Z,72.23
2018-11-23T00:22:49.086Z,72.47
2018-11-23T00:25:18.969Z,72.10
2018-11-23T00:27:48.290Z,72.45
2018-11-23T00:30:18.951Z,72.47
2018-11-23T00:32:48.209Z,72.71
2018-11-23T00:35:18.538Z,73.03
2018-11-23T00:37:47.716Z,72.85
2018-11-23T00:40:20.618Z,73.04
2018-11-23T00:42:49.599Z,73.24
2018-11-23T00:45:18.297Z,73.53
2018-11-23T00:47:47.789Z,73.57
2018-11-23T00:50:18.021Z,74.08
2018-11-23T00:52:47.124Z,74.28
2018-11-23T00:55:17.025Z,74.26
2018-11-23T00:57:45.717Z,74.38
2018-11-23T01:00:20.335Z,74.64
2018-11-23T01:02:49.042Z,74.39
2018-11-23T01:05:18.501Z,74.63
2018-11-23T01:07:47.851Z,74.86
2018-11-23T01:10:18.137Z,74.56
2018-11-23T01:12:47.954Z,75.02
2018-11-23T01:15:16.676Z,74.53
2018-11-23T01:17:45.395Z,74.94
2018-11-23T01:20:16.976Z,74.61
2018-11-23T01:22:45.929Z,74.69
2018-11-23T01:25:15.794Z,74.86
2018-11-23T01:27:45.403Z,74.88
2018-11-23T01:30:17.535Z,74.36
2018-11-23T01:32:46.341Z,74.37
2018-11-23T01:35:15.629Z,74.42
2018-11-23T01:37:44.348Z,74.69
2018-11-23T01:40:16.148Z,74.46
2018-11-23T01:42:45.269Z,74.47
2018-11-23T01:45:14.464Z,74.74
2018-11-23T01:47:43.269Z,74.82
2018-11-23T01:50:14.872Z,74.31
2018-11-23T01:52:44.501Z,74.34
2018-11-23T01:55:14.138Z,74.53
2018-11-23T01:57:43.318Z,74.24
2018-11-23T02:00:14.573Z,74.26
2018-11-23T02:02:43.656Z,73.99
2018-11-23T02:05:12.401Z,74.02
2018-11-23T02:07:41.125Z,73.94
2018-11-23T02:10:11.256Z,74.25
2018-11-23T02:12:39.969Z,74.29
2018-11-23T02:15:10.394Z,74.42
2018-11-23T02:17:39.113Z,73.99
2018-11-23T02:20:09.485Z,74.24
2018-11-23T02:22:38.267Z,74.26
2018-11-23T02:25:07.284Z,74.23
2018-11-23T02:27:36.292Z,74.00
2018-11-23T02:30:09.813Z,73.95
2018-11-23T02:32:38.740Z,73.98
2018-11-23T02:35:07.464Z,74.01
2018-11-23T02:37:36.185Z,73.53
2018-11-23T02:40:06.663Z,73.60
2018-11-23T02:42:35.380Z,73.67
2018-11-23T02:45:05.829Z,73.40
2018-11-23T02:47:35.881Z,73.73
2018-11-23T02:50:05.452Z,73.45
2018-11-23T02:52:34.158Z,73.52
2018-11-23T02:55:02.889Z,73.34
2018-11-23T02:57:31.717Z,73.73
2018-11-23T03:00:00.444Z,73.39
2018-11-23T03:02:29.160Z,73.39
2018-11-23T03:04:57.868Z,73.38
2018-11-23T03:07:26.823Z,73.53
2018-11-23T03:09:55.614Z,73.48
2018-11-23T03:12:24.317Z,73.49
2018-11-23T03:14:53.052Z,73.12
2018-11-23T03:17:21.958Z,73.54
2018-11-23T03:19:51.238Z,73.06
2018-11-23T03:22:19.935Z,73.24
2018-11-23T03:24:48.649Z,72.91
2018-11-23T03:27:17.381Z,72.93
2018-11-23T03:29:46.165Z,73.29
2018-11-23T03:32:14.989Z,73.10
2018-11-23T03:34:43.865Z,73.22
2018-11-23T03:37:12.569Z,73.42
2018-11-23T03:39:41.285Z,73.49
2018-11-23T03:42:10.632Z,73.70
2018-11-23T03:44:39.320Z,73.53
2018-11-23T03:47:08.046Z,73.79
2018-11-23T03:49:36.776Z,73.73
2018-11-23T03:52:05.485Z,74.19
2018-11-23T03:54:34.249Z,73.75
2018-11-23T03:57:02.950Z,74.12
2018-11-23T03:59:31.653Z,73.80
2018-11-23T04:02:00.729Z,73.83
2018-11-23T04:04:29.448Z,73.58
2018-11-23T04:06:59.209Z,74.08
2018-11-23T04:09:27.921Z,74.22
2018-11-23T04:11:56.625Z,74.06
2018-11-23T04:14:25.394Z,73.82
2018-11-23T04:16:54.109Z,73.94
2018-11-23T04:19:22.969Z,73.70
2018-11-23T04:21:51.695Z,73.83
2018-11-23T04:24:20.462Z,73.89
2018-11-23T04:26:49.168Z,74.05
2018-11-23T04:29:17.902Z,74.31
2018-11-23T04:31:46.635Z,74.09
2018-11-23T04:34:15.372Z,74.60
2018-11-23T04:36:44.078Z,74.92
2018-11-23T04:39:12.803Z,74.64
2018-11-23T04:41:46.282Z,74.52
2018-11-23T04:44:10.211Z,74.61
2018-11-23T04:46:39.085Z,74.61
2018-11-23T04:49:07.838Z,74.25
2018-11-23T04:51:36.561Z,74.46
2018-11-23T04:54:05.672Z,74.61
2018-11-23T04:56:34.377Z,74.34
2018-11-23T04:59:03.647Z,74.15
2018-11-23T05:01:32.584Z,73.73
2018-11-23T05:04:01.296Z,74.25
2018-11-23T05:06:30.072Z,74.32
2018-11-23T05:08:58.784Z,73.91
2018-11-23T05:11:27.484Z,73.66
2018-11-23T05:13:56.188Z,73.63
2018-11-23T05:16:24.917Z,73.44
2018-11-23T05:18:54.143Z,73.60
2018-11-23T05:21:22.859Z,73.88
2018-11-23T05:23:51.549Z,73.68
2018-11-23T05:26:20.493Z,73.88
2018-11-23T05:28:49.560Z,73.82
2018-11-23T05:31:18.267Z,73.65
2018-11-23T05:33:46.949Z,73.76
2018-11-23T05:36:15.657Z,73.78
2018-11-23T05:38:44.673Z,73.70
2018-11-23T05:41:13.382Z,73.68
2018-11-23T05:43:42.122Z,74.11
2018-11-23T05:46:10.955Z,73.98
2018-11-23T05:48:39.664Z,73.94
2018-11-23T05:51:08.361Z,74.00
2018-11-23T05:53:37.448Z,74.02
2018-11-23T05:56:06.296Z,74.29
2018-11-23T05:58:34.989Z,73.96
2018-11-23T06:01:03.710Z,74.68
2018-11-23T06:03:32.397Z,74.49
2018-11-23T06:06:01.350Z,74.81
2018-11-23T06:08:30.293Z,74.09
2018-11-23T06:10:58.990Z,74.78
2018-11-23T06:13:27.937Z,75.00
2018-11-23T06:15:56.645Z,74.80
2018-11-23T06:18:37.585Z,74.77
2018-11-23T06:21:06.284Z,74.61
2018-11-23T06:23:35.001Z,74.97
2018-11-23T06:26:11.872Z,74.64
2018-11-23T06:28:40.532Z,74.17
2018-11-23T06:31:09.229Z,74.34
2018-11-23T06:33:40.225Z,73.78
2018-11-23T06:36:08.938Z,74.27
2018-11-23T06:38:37.871Z,73.60
2018-11-23T06:41:10.524Z,73.78
2018-11-23T06:43:36.370Z,73.37
2018-11-23T06:46:06.541Z,73.25
2018-11-23T06:48:35.246Z,73.81
2018-11-23T06:51:05.278Z,73.68
2018-11-23T06:53:33.968Z,73.76
2018-11-23T06:56:03.135Z,73.05
2018-11-23T06:58:31.814Z,73.61
2018-11-23T07:01:00.513Z,73.47
2018-11-23T07:03:29.317Z,73.59
2018-11-23T07:08:44.641Z,73.37
2018-11-23T07:11:13.608Z,73.32
2018-11-23T07:13:42.322Z,73.37
2018-11-23T07:16:11.024Z,73.46
2018-11-23T07:18:39.993Z,73.46
2018-11-23T07:21:08.731Z,73.20
2018-11-23T07:23:37.421Z,73.93
2018-11-23T07:26:06.236Z,73.37
2018-11-23T07:28:35.221Z,73.60
2018-11-23T07:31:04.748Z,73.49
2018-11-23T07:33:33.481Z,74.04
2018-11-23T07:36:02.197Z,73.92
2018-11-23T07:38:30.907Z,74.08
2018-11-23T07:41:11.008Z,73.38
2018-11-23T07:43:39.720Z,73.45
2018-11-23T07:46:08.437Z,73.75
2018-11-23T07:48:37.152Z,74.24
2018-11-23T07:51:06.008Z,73.99
2018-11-23T07:53:34.720Z,74.24
2018-11-23T07:56:03.417Z,74.46
2018-11-23T07:58:32.133Z,74.33
2018-11-23T08:01:00.842Z,74.57
2018-11-23T08:03:29.548Z,74.49
2018-11-23T08:05:58.286Z,74.44
2018-11-23T08:08:27.001Z,74.60
2018-11-23T08:10:54.913Z,75.35
2018-11-23T08:13:23.672Z,75.71
2018-11-23T08:15:52.385Z,76.79
2018-11-23T08:18:21.093Z,76.86
2018-11-23T08:20:49.789Z,77.03
2018-11-23T08:23:18.522Z,77.31
2018-11-23T08:25:47.217Z,77.40
2018-11-23T08:28:16.233Z,77.46
2018-11-23T08:30:44.940Z,77.72
2018-11-23T08:33:13.652Z,77.75
2018-11-23T08:35:42.361Z,78.68
2018-11-23T08:38:11.081Z,78.42
2018-11-23T08:40:39.817Z,78.57
2018-11-23T08:43:08.521Z,78.46
2018-11-23T08:45:37.230Z,78.30
2018-11-23T08:48:05.940Z,78.35
2018-11-23T08:50:34.649Z,78.59
2018-11-23T08:53:03.352Z,78.83
2018-11-23T08:55:32.096Z,78.81
2018-11-23T08:58:00.810Z,78.94
2018-11-23T09:00:29.597Z,79.14
2018-11-23T09:02:59.730Z,78.83
2018-11-23T09:05:28.461Z,78.75
2018-11-23T09:07:57.572Z,78.78
2018-11-23T09:10:27.706Z,78.67
2018-11-23T09:12:57.980Z,78.73
2018-11-23T09:15:26.711Z,78.56
2018-11-23T09:17:55.493Z,78.54
2018-11-23T09:20:24.137Z,78.25
2018-11-23T09:22:52.836Z,78.34
2018-11-23T09:25:22.516Z,78.67
2018-11-23T09:27:51.430Z,78.71
2018-11-23T09:30:22.418Z,78.42
2018-11-23T09:32:51.890Z,79.20
2018-11-23T09:35:20.711Z,79.10
2018-11-23T09:37:49.576Z,79.06
2018-11-23T09:40:22.542Z,79.26
2018-11-23T09:42:51.374Z,79.33
2018-11-23T09:45:22.652Z,79.10
2018-11-23T09:47:52.870Z,79.36
2018-11-23T09:50:22.593Z,79.43
2018-11-23T09:52:52.442Z,79.39
2018-11-23T09:55:21.747Z,79.71
2018-11-23T09:57:50.446Z,79.50
2018-11-23T10:00:20.487Z,79.51
2018-11-23T10:02:50.105Z,79.85
2018-11-23T10:05:19.206Z,79.68
2018-11-23T10:07:49.243Z,79.71
2018-11-23T10:10:18.912Z,79.47
2018-11-23T10:12:47.633Z,79.59
2018-11-23T10:15:17.324Z,79.14
2018-11-23T10:17:46.032Z,79.51
2018-11-23T10:20:20.529Z,78.80
2018-11-23T10:22:49.241Z,78.91
2018-11-23T10:25:19.384Z,78.78
2018-11-23T10:27:48.313Z,78.86
2018-11-23T10:30:20.257Z,78.86
2018-11-23T10:32:50.045Z,78.73
2018-11-23T10:35:18.757Z,78.56
2018-11-23T10:37:49.069Z,78.46
2018-11-23T10:40:19.137Z,77.81
2018-11-23T10:42:47.869Z,77.98
2018-11-23T10:45:18.349Z,77.85
2018-11-23T10:47:47.882Z,77.65
2018-11-23T10:50:18.621Z,77.37
2018-11-23T10:52:46.670Z,77.55
2018-11-23T10:55:17.518Z,77.31
2018-11-23T10:57:46.316Z,77.14
2018-11-23T11:00:21.748Z,77.08
2018-11-23T11:04:57.886Z,76.87
2018-11-23T11:07:26.605Z,76.35
2018-11-23T11:09:55.308Z,76.62
2018-11-23T11:12:24.032Z,76.71
2018-11-23T11:14:53.044Z,76.36
2018-11-23T11:17:21.809Z,76.44
2018-11-23T11:19:50.525Z,76.42
2018-11-23T11:22:19.240Z,76.17
2018-11-23T11:24:47.937Z,76.01
2018-11-23T11:27:16.741Z,75.84
2018-11-23T11:29:45.527Z,75.88
2018-11-23T11:32:14.236Z,75.75
2018-11-23T11:34:42.953Z,75.47
2018-11-23T11:37:11.660Z,75.43
2018-11-23T11:39:40.384Z,75.21
2018-11-23T11:42:09.432Z,75.50
2018-11-23T11:44:38.133Z,74.70
2018-11-23T11:47:06.961Z,74.81
2018-11-23T11:49:35.664Z,74.50
2018-11-23T11:52:05.654Z,74.53
2018-11-23T11:54:34.353Z,73.69
2018-11-23T11:57:03.181Z,73.87
2018-11-23T11:59:32.367Z,73.66
2018-11-23T12:02:01.070Z,73.01
2018-11-23T12:04:29.780Z,72.97
2018-11-23T12:06:58.508Z,72.84
2018-11-23T12:09:27.319Z,72.38
2018-11-23T12:11:56.022Z,72.24
2018-11-23T12:14:25.076Z,72.26
2018-11-23T12:16:53.837Z,71.82
2018-11-23T12:19:22.540Z,72.08
2018-11-23T12:21:51.497Z,71.64
2018-11-23T12:24:20.304Z,71.83
2018-11-23T12:26:49.008Z,71.72
2018-11-23T12:29:17.739Z,71.76
2018-11-23T12:31:46.440Z,71.77
2018-11-23T12:34:15.149Z,72.05
2018-11-23T12:36:43.856Z,71.40
2018-11-23T12:39:12.733Z,71.53
2018-11-23T12:41:41.433Z,71.64
2018-11-23T12:44:10.534Z,71.55
2018-11-23T12:46:39.244Z,71.61
2018-11-23T12:49:07.973Z,71.41
2018-11-23T12:51:36.672Z,71.18
2018-11-23T12:54:06.177Z,71.43
2018-11-23T12:56:34.900Z,71.10
2018-11-23T12:59:04.924Z,71.03
2018-11-23T13:01:34.268Z,70.94
2018-11-23T13:04:03.005Z,71.20
2018-11-23T13:06:31.754Z,71.24
2018-11-23T13:09:00.469Z,71.28
2018-11-23T13:11:29.173Z,71.13
2018-11-23T13:13:57.882Z,71.30
2018-11-23T13:16:26.587Z,71.16
2018-11-23T13:18:55.384Z,71.16
2018-11-23T13:21:24.341Z,70.86
2018-11-23T13:23:53.046Z,71.17
2018-11-23T13:26:21.745Z,71.58
2018-11-23T13:28:50.519Z,70.86
2018-11-23T13:31:19.200Z,70.77
2018-11-23T13:33:47.920Z,70.99
2018-11-23T13:36:16.641Z,70.96
2018-11-23T13:38:45.354Z,70.95
2018-11-23T13:41:14.060Z,70.52
2018-11-23T13:43:42.777Z,70.81
2018-11-23T13:46:11.484Z,70.92
2018-11-23T13:48:40.191Z,70.91
2018-11-23T13:51:08.913Z,70.85
2018-11-23T13:53:37.615Z,70.59
2018-11-23T13:56:06.661Z,70.40
2018-11-23T13:58:35.403Z,70.58
2018-11-23T14:01:04.953Z,70.95
2018-11-23T14:03:34.625Z,71.05
2018-11-23T14:06:02.371Z,70.69
2018-11-23T14:08:31.121Z,70.33
2018-11-23T14:10:59.840Z,70.48
2018-11-23T14:13:28.552Z,70.55
2018-11-23T14:15:57.283Z,70.53
2018-11-23T14:18:26.001Z,70.76
2018-11-23T14:20:54.716Z,70.60
2018-11-23T14:23:23.444Z,70.56
2018-11-23T14:25:52.213Z,70.64
2018-11-23T14:28:21.001Z,71.05
2018-11-23T14:30:49.737Z,70.58
2018-11-23T14:33:18.448Z,70.71
2018-11-23T14:35:47.165Z,70.74
2018-11-23T14:38:15.864Z,70.95
2018-11-23T14:40:50.088Z,70.89
2018-11-23T14:43:18.961Z,71.15
2018-11-23T14:45:47.678Z,70.59
2018-11-23T14:48:16.404Z,70.84
2018-11-23T14:50:48.519Z,70.63
2018-11-23T14:53:17.308Z,70.78
2018-11-23T14:55:45.997Z,70.81
2018-11-23T14:58:14.752Z,71.00
2018-11-23T15:00:43.536Z,70.90
2018-11-23T15:03:12.246Z,71.00
2018-11-23T15:05:40.937Z,71.16
2018-11-23T15:08:09.911Z,70.69
2018-11-23T15:10:38.612Z,70.12
2018-11-23T15:13:07.624Z,70.37
2018-11-23T15:15:38.232Z,70.47
2018-11-23T15:18:07.693Z,70.86
2018-11-23T15:20:39.820Z,71.02
2018-11-23T15:23:10.973Z,71.10
2018-11-23T15:25:40.028Z,70.92
2018-11-23T15:28:09.565Z,71.33
2018-11-23T15:30:39.231Z,71.34
2018-11-23T15:33:08.953Z,71.69
2018-11-23T15:35:38.433Z,71.43
2018-11-23T15:38:10.335Z,71.81
2018-11-23T15:40:38.432Z,71.79
2018-11-23T15:43:08.930Z,72.19
2018-11-23T15:45:37.934Z,72.12
2018-11-23T15:48:07.313Z,71.95
2018-11-23T15:50:37.318Z,72.10
2018-11-23T15:53:07.350Z,72.21
2018-11-23T15:55:36.641Z,72.30
2018-11-23T15:58:07.132Z,72.14
2018-11-23T16:00:38.252Z,72.49
2018-11-23T16:03:08.394Z,72.22
2018-11-23T16:05:37.232Z,72.18
2018-11-23T16:08:08.718Z,72.54
2018-11-23T16:10:38.196Z,72.51
2018-11-23T16:13:11.490Z,72.28
2018-11-23T16:15:37.473Z,72.70
2018-11-23T16:18:06.795Z,72.65
2018-11-23T16:20:37.771Z,72.62
2018-11-23T16:23:08.357Z,72.86
2018-11-23T16:25:37.120Z,73.05
2018-11-23T16:28:07.046Z,73.05
2018-11-23T16:30:37.480Z,73.12
2018-11-23T16:33:07.841Z,72.92
2018-11-23T16:35:38.075Z,73.34
2018-11-23T16:38:08.708Z,73.37
2018-11-23T16:40:38.925Z,73.35
2018-11-23T16:43:09.107Z,73.17
2018-11-23T16:45:38.589Z,73.27
2018-11-23T16:48:08.425Z,73.44
2018-11-23T16:50:37.244Z,73.51
2018-11-23T16:53:15.873Z,73.33
2018-11-23T16:55:44.701Z,73.41
2018-11-23T16:58:14.177Z,73.66
2018-11-23T17:01:01.193Z,73.51
2018-11-23T17:03:29.919Z,73.85
2018-11-23T17:05:58.617Z,73.27
2018-11-23T17:08:27.326Z,73.78
2018-11-23T17:10:56.044Z,73.72
2018-11-23T17:13:24.740Z,73.94
2018-11-23T17:15:53.512Z,74.02
2018-11-23T17:18:22.360Z,74.18
2018-11-23T17:20:51.348Z,73.93
2018-11-23T17:23:20.092Z,73.92
2018-11-23T17:25:48.810Z,73.97
2018-11-23T17:28:17.505Z,73.87
2018-11-23T17:31:05.064Z,74.04
2018-11-23T17:33:33.985Z,73.91
2018-11-23T17:36:02.689Z,73.91
2018-11-23T17:38:37.611Z,73.89
2018-11-23T17:41:00.878Z,74.00
2018-11-23T17:43:29.616Z,73.81
2018-11-23T17:45:58.777Z,73.93
2018-11-23T17:48:28.419Z,73.92
2018-11-23T17:50:58.619Z,73.71
2018-11-23T17:53:27.338Z,74.07
2018-11-23T17:55:56.096Z,73.89
2018-11-23T17:58:24.827Z,73.85
2018-11-23T18:00:53.938Z,73.77
2018-11-23T18:03:22.648Z,73.97
2018-11-23T18:05:51.352Z,73.56
2018-11-23T18:08:20.091Z,73.46
2018-11-23T18:10:48.828Z,73.76
2018-11-23T18:13:17.555Z,73.65
2018-11-23T18:15:46.269Z,73.80
2018-11-23T18:18:15.365Z,73.45
2018-11-23T18:20:44.373Z,73.23
2018-11-23T18:23:13.085Z,73.74
2018-11-23T18:25:42.142Z,73.83
2018-11-23T18:28:10.884Z,74.02
2018-11-23T18:30:39.613Z,74.01
2018-11-23T18:33:09.823Z,73.91
2018-11-23T18:35:38.521Z,73.67
2018-11-23T18:38:07.223Z,73.91
2018-11-23T18:40:37.278Z,74.02
2018-11-23T18:43:05.234Z,73.48
2018-11-23T18:45:33.985Z,73.61
2018-11-23T18:48:02.689Z,74.12
2018-11-23T18:50:31.400Z,73.90
2018-11-23T18:53:00.115Z,74.15
2018-11-23T18:55:28.823Z,73.93
2018-11-23T18:57:57.906Z,73.82
2018-11-23T19:00:26.622Z,73.66
2018-11-23T19:02:55.333Z,73.71
2018-11-23T19:05:26.686Z,73.77
2018-11-23T19:07:55.425Z,73.49
2018-11-23T19:10:24.132Z,73.67
2018-11-23T19:12:52.856Z,73.89
2018-11-23T19:15:25.410Z,73.92
2018-11-23T19:17:50.445Z,74.18
2018-11-23T19:20:20.370Z,73.29
2018-11-23T19:22:51.072Z,74.18
2018-11-23T19:25:19.817Z,74.42
2018-11-23T19:27:48.539Z,74.27
2018-11-23T19:30:18.469Z,74.53
2018-11-23T19:32:47.569Z,74.71
2018-11-23T19:35:16.279Z,74.70
2018-11-23T19:37:45.262Z,74.80
2018-11-23T19:40:14.835Z,74.68
2018-11-23T19:42:44.435Z,74.72
2018-11-23T19:51:12.197Z,74.55
2018-11-23T19:53:40.913Z,74.75
2018-11-23T19:56:09.657Z,74.64
2018-11-23T19:58:38.844Z,74.90
2018-11-23T20:01:07.589Z,74.49
2018-11-23T20:03:36.278Z,74.87
2018-11-23T20:06:05.168Z,74.75
2018-11-23T20:08:40.405Z,74.96
2018-11-23T20:11:09.351Z,75.25
2018-11-23T20:13:38.085Z,74.70
2018-11-23T20:16:06.806Z,74.53
2018-11-23T20:18:35.509Z,74.45
2018-11-23T20:21:04.756Z,74.66
2018-11-23T20:23:33.630Z,74.83
2018-11-23T20:26:02.337Z,74.79
2018-11-23T20:28:31.069Z,74.98
2018-11-23T20:31:00.000Z,75.24
2018-11-23T20:33:28.701Z,75.14
2018-11-23T20:35:57.440Z,74.93
2018-11-23T20:38:26.178Z,75.37
2018-11-23T20:40:54.892Z,75.13
2018-11-23T20:43:23.627Z,75.28
2018-11-23T20:45:52.343Z,74.95
2018-11-23T20:48:21.044Z,75.47
2018-11-23T20:50:49.786Z,75.72
2018-11-23T20:53:18.501Z,75.86
2018-11-23T20:55:47.208Z,75.68
2018-11-23T20:58:16.291Z,75.61
2018-11-23T21:00:45.490Z,75.70
2018-11-23T21:03:14.182Z,75.37
2018-11-23T21:05:42.933Z,75.68
2018-11-23T21:08:11.625Z,75.82
2018-11-23T21:10:40.332Z,75.85
2018-11-23T21:13:09.028Z,75.82
2018-11-23T21:15:37.736Z,76.14
2018-11-23T21:18:06.950Z,76.20
2018-11-23T21:20:35.676Z,76.15
2018-11-23T21:23:04.853Z,76.42
2018-11-23T21:25:33.570Z,76.41
2018-11-23T21:28:02.266Z,76.18
2018-11-23T21:30:31.059Z,76.53
2018-11-23T21:32:59.756Z,76.67
2018-11-23T21:35:28.517Z,76.52
2018-11-23T21:37:57.225Z,76.29
2018-11-23T21:40:33.516Z,76.65
2018-11-23T21:43:02.218Z,76.82
2018-11-23T21:45:30.933Z,76.94
2018-11-23T21:48:00.905Z,76.80
2018-11-23T21:50:29.649Z,76.89
2018-11-23T21:52:58.376Z,76.91
2018-11-23T21:55:27.104Z,77.20
2018-11-23T21:57:56.570Z,77.43
2018-11-23T22:00:25.285Z,77.40
2018-11-23T22:02:54.364Z,77.34
2018-11-23T22:05:23.228Z,77.62
2018-11-23T22:07:51.959Z,77.57
2018-11-23T22:10:20.940Z,77.66
2018-11-23T22:12:50.590Z,78.00
2018-11-23T22:15:21.463Z,77.55
2018-11-23T22:17:51.254Z,77.82
2018-11-23T22:20:21.079Z,78.05
2018-11-23T22:22:49.875Z,77.91
2018-11-23T22:25:19.887Z,77.96
2018-11-23T22:27:48.793Z,77.94
2018-11-23T22:30:23.205Z,77.85
2018-11-23T22:32:51.994Z,78.04
2018-11-23T22:35:20.981Z,77.62
2018-11-23T22:37:50.098Z,78.43
2018-11-23T22:40:19.865Z,78.44
2018-11-23T22:42:49.690Z,78.75
2018-11-23T22:45:18.416Z,78.75
2018-11-23T22:47:49.110Z,78.87
2018-11-23T22:50:19.964Z,79.53
2018-11-23T22:52:48.717Z,79.93
2018-11-23T22:55:18.130Z,80.13
2018-11-23T22:57:46.884Z,79.86
2018-11-23T23:00:23.617Z,79.93
2018-11-23T23:02:52.349Z,79.81
2018-11-23T23:05:22.414Z,80.17
2018-11-23T23:07:51.397Z,80.25
2018-11-23T23:10:20.398Z,80.35
2018-11-23T23:12:49.731Z,80.33
2018-11-23T23:15:18.665Z,80.67
2018-11-23T23:17:47.395Z,80.85
2018-11-23T23:20:17.301Z,80.94
2018-11-23T23:22:46.042Z,80.35
2018-11-23T23:25:14.774Z,80.83
2018-11-23T23:27:43.652Z,80.78
2018-11-23T23:30:13.702Z,80.61
2018-11-23T23:32:42.481Z,80.88
2018-11-23T23:35:12.133Z,80.63
2018-11-23T23:37:41.288Z,81.04
2018-11-23T23:40:11.147Z,81.12
2018-11-23T23:42:39.843Z,81.20
2018-11-23T23:45:11.636Z,81.35
2018-11-23T23:47:40.373Z,81.11
2018-11-23T23:50:14.115Z,81.18
2018-11-23T23:52:42.865Z,81.21
2018-11-23T23:55:11.606Z,81.04
2018-11-23T23:57:41.309Z,81.44
